createdAt,value
2019-03-10T00:00:32.549Z,95144.95
2019-03-10T00:03:02.053Z,95143.98
2019-03-10T00:05:31.545Z,95137.12
2019-03-10T00:08:01.322Z,95148.58
2019-03-10T00:10:30.988Z,95150.23
2019-03-10T00:13:00.547Z,95144.15
2019-03-10T00:15:30.199Z,95144.47
2019-03-10T00:17:59.763Z,95147.12
2019-03-10T00:20:29.246Z,95146.78
2019-03-10T00:22:58.747Z,95142.87
2019-03-10T00:25:28.262Z,95146.78
2019-03-10T00:27:57.867Z,95142.04
2019-03-10T00:30:27.423Z,95155.97
2019-03-10T00:32:56.925Z,95142.84
2019-03-10T00:35:26.483Z,95153.19
2019-03-10T00:37:56.001Z,95151.38
2019-03-10T00:40:52.249Z,95137.61
2019-03-10T00:43:50.231Z,95136.96
2019-03-10T00:47:00.526Z,95123.03
2019-03-10T00:49:46.420Z,95124.84
2019-03-10T00:52:26.884Z,95118.94
2019-03-10T00:54:56.381Z,95112.72
2019-03-10T00:57:25.937Z,95107.48
2019-03-10T00:59:56.268Z,95115.16
2019-03-10T01:02:25.765Z,95115.00
2019-03-10T01:04:55.250Z,95097.13
2019-03-10T01:07:24.779Z,95105.83
2019-03-10T01:10:26.171Z,95085.52
2019-03-10T01:12:55.754Z,95088.46
2019-03-10T01:15:25.622Z,95078.48
2019-03-10T01:17:55.466Z,95082.10
2019-03-10T01:20:25.025Z,95073.73
2019-03-10T01:22:54.537Z,95079.78
2019-03-10T01:25:24.005Z,95072.73
2019-03-10T01:27:53.530Z,95060.47
2019-03-10T01:30:23.017Z,95055.91
2019-03-10T01:33:31.444Z,95052.77
2019-03-10T01:36:00.939Z,95048.20
2019-03-10T01:38:30.447Z,95053.11
2019-03-10T01:40:59.977Z,95036.73
2019-03-10T01:43:29.485Z,95023.66
2019-03-10T01:45:59.003Z,95031.81
2019-03-10T01:48:28.533Z,95015.77
2019-03-10T01:50:58.018Z,95020.36
2019-03-10T01:53:28.204Z,95015.45
2019-03-10T01:55:57.688Z,95018.06
2019-03-10T01:58:28.896Z,95006.13
2019-03-10T02:00:58.513Z,94991.89
2019-03-10T02:03:28.014Z,94986.17
2019-03-10T02:05:57.531Z,94985.98
2019-03-10T02:08:27.127Z,94971.42
2019-03-10T02:10:56.620Z,94973.90
2019-03-10T02:13:45.469Z,94968.48
2019-03-10T02:16:15.092Z,94965.05
2019-03-10T02:18:44.602Z,94954.04
2019-03-10T02:21:14.086Z,94953.88
2019-03-10T02:23:43.590Z,94957.33
2019-03-10T02:26:13.083Z,94959.44
2019-03-10T02:28:42.604Z,94955.69
2019-03-10T02:31:12.101Z,94953.40
2019-03-10T02:33:41.649Z,94952.23
2019-03-10T02:36:11.124Z,94950.91
2019-03-10T02:38:40.665Z,94943.98
2019-03-10T02:41:10.152Z,94944.28
2019-03-10T02:43:39.655Z,94939.97
2019-03-10T02:46:09.157Z,94941.02
2019-03-10T02:48:38.645Z,94932.78
2019-03-10T02:51:08.156Z,94942.29
2019-03-10T02:53:37.662Z,94946.86
2019-03-10T02:56:07.147Z,94945.59
2019-03-10T02:58:36.651Z,94943.75
2019-03-10T03:01:06.136Z,94931.72
2019-03-10T03:03:35.643Z,94938.61
2019-03-10T03:06:05.222Z,94930.94
2019-03-10T03:08:34.779Z,94922.53
2019-03-10T03:11:04.336Z,94921.79
2019-03-10T03:13:33.842Z,94903.72
2019-03-10T03:16:04.267Z,94900.00
2019-03-10T03:18:33.770Z,94887.45
2019-03-10T03:21:03.291Z,94892.84
2019-03-10T03:23:32.794Z,94895.48
2019-03-10T03:26:02.305Z,94912.05
2019-03-10T03:28:32.358Z,94915.44
2019-03-10T03:31:01.866Z,94928.84
2019-03-10T03:33:31.394Z,94925.30
2019-03-10T03:36:16.784Z,94934.64
2019-03-10T03:39:11.912Z,94936.10
2019-03-10T03:41:43.412Z,94925.92
2019-03-10T03:44:12.615Z,94897.20
2019-03-10T03:46:42.204Z,94878.23
2019-03-10T03:49:11.715Z,94885.39
2019-03-10T03:51:41.296Z,94880.97
2019-03-10T03:54:10.822Z,94874.58
2019-03-10T03:56:40.332Z,94866.79
2019-03-10T03:59:09.866Z,94861.55
2019-03-10T04:01:43.711Z,94860.05
2019-03-10T04:04:13.239Z,94857.75
2019-03-10T04:06:42.722Z,94849.39
2019-03-10T04:09:12.235Z,94849.41
2019-03-10T04:11:41.727Z,94855.11
2019-03-10T04:14:11.226Z,94848.09
2019-03-10T04:16:40.704Z,94826.21
2019-03-10T04:19:10.202Z,94836.45
2019-03-10T04:21:39.690Z,94831.34
2019-03-10T04:24:09.193Z,94813.53
2019-03-10T04:26:38.676Z,94797.86
2019-03-10T04:29:08.162Z,94799.78
2019-03-10T04:31:37.706Z,94798.95
2019-03-10T04:34:07.225Z,94796.17
2019-03-10T04:36:36.705Z,94785.70
2019-03-10T04:39:07.609Z,94776.42
2019-03-10T04:41:37.108Z,94774.00
2019-03-10T04:44:06.653Z,94764.70
2019-03-10T04:46:36.138Z,94758.66
2019-03-10T04:49:05.638Z,94748.70
2019-03-10T04:51:36.052Z,94743.66
2019-03-10T04:54:05.602Z,94742.68
2019-03-10T04:56:39.482Z,94742.68
2019-03-10T04:59:08.961Z,94730.28
2019-03-10T05:01:38.465Z,94719.98
2019-03-10T05:04:07.964Z,94706.45
2019-03-10T05:06:37.463Z,94701.70
2019-03-10T05:09:09.114Z,94700.25
2019-03-10T05:11:38.615Z,94683.42
2019-03-10T05:14:08.111Z,94681.80
2019-03-10T05:16:37.641Z,94678.38
2019-03-10T05:19:07.979Z,94679.03
2019-03-10T05:21:37.488Z,94662.02
2019-03-10T05:24:09.908Z,94662.30
2019-03-10T05:26:39.408Z,94649.95
2019-03-10T05:29:08.930Z,94660.72
2019-03-10T05:31:38.467Z,94655.84
2019-03-10T05:34:07.954Z,94644.06
2019-03-10T05:36:37.490Z,94632.11
2019-03-10T05:39:07.703Z,94636.23
2019-03-10T05:41:37.217Z,94625.80
2019-03-10T05:44:07.441Z,94625.27
2019-03-10T05:46:37.016Z,94614.36
2019-03-10T05:49:06.538Z,94625.46
2019-03-10T05:51:36.093Z,94622.55
2019-03-10T05:54:05.596Z,94615.86
2019-03-10T05:56:35.673Z,94609.52
2019-03-10T05:59:05.160Z,94611.11
2019-03-10T06:01:34.692Z,94609.34
2019-03-10T06:04:04.195Z,94609.98
2019-03-10T06:06:33.704Z,94595.47
2019-03-10T06:09:05.712Z,94594.47
2019-03-10T06:11:35.209Z,94587.97
2019-03-10T06:14:04.700Z,94588.13
2019-03-10T06:16:34.212Z,94581.74
2019-03-10T06:19:03.702Z,94586.16
2019-03-10T06:21:33.255Z,94588.45
2019-03-10T06:24:02.742Z,94582.39
2019-03-10T06:26:32.221Z,94582.88
2019-03-10T06:29:01.728Z,94572.27
2019-03-10T06:31:31.223Z,94571.79
2019-03-10T06:34:00.783Z,94563.78
2019-03-10T06:36:30.290Z,94561.86
2019-03-10T06:38:59.799Z,94557.62
2019-03-10T06:41:29.291Z,94549.43
2019-03-10T06:43:58.776Z,94550.92
2019-03-10T06:46:28.284Z,94548.77
2019-03-10T06:48:57.773Z,94548.59
2019-03-10T06:51:27.271Z,94527.18
2019-03-10T06:53:56.760Z,94526.70
2019-03-10T06:56:26.266Z,94521.39
2019-03-10T06:58:55.776Z,94510.72
2019-03-10T07:01:25.283Z,94521.52
2019-03-10T07:03:54.790Z,94508.16
2019-03-10T07:06:24.297Z,94505.89
2019-03-10T07:08:53.842Z,94497.17
2019-03-10T07:11:23.330Z,94489.34
2019-03-10T07:13:52.836Z,94493.25
2019-03-10T07:16:22.340Z,94488.33
2019-03-10T07:18:51.846Z,94484.41
2019-03-10T07:21:21.561Z,94481.95
2019-03-10T07:23:51.184Z,94478.18
2019-03-10T07:26:20.642Z,94477.20
2019-03-10T07:28:51.763Z,94470.19
2019-03-10T07:31:24.142Z,94474.02
2019-03-10T07:33:55.288Z,94468.84
2019-03-10T07:36:26.425Z,94463.72
2019-03-10T07:38:57.566Z,94465.50
2019-03-10T07:41:34.181Z,94464.97
2019-03-10T07:44:08.023Z,94453.16
2019-03-10T07:46:40.242Z,94451.28
2019-03-10T07:49:14.050Z,94447.66
2019-03-10T07:52:00.338Z,94453.79
2019-03-10T07:54:38.285Z,94453.09
2019-03-10T07:57:10.250Z,94451.78
2019-03-10T07:59:41.401Z,94443.23
2019-03-10T08:02:15.310Z,94446.44
2019-03-10T08:05:03.490Z,94445.22
2019-03-10T08:07:37.310Z,94440.34
2019-03-10T08:10:22.754Z,94439.20
2019-03-10T08:12:53.896Z,94432.75
2019-03-10T08:15:23.152Z,94436.41
2019-03-10T08:17:54.291Z,94433.96
2019-03-10T08:20:40.304Z,94426.24
2019-03-10T08:23:17.155Z,94431.53
2019-03-10T08:25:48.304Z,94420.23
2019-03-10T08:28:28.451Z,94440.37
2019-03-10T08:31:11.166Z,94433.74
2019-03-10T08:33:50.884Z,94428.91
2019-03-10T08:36:42.824Z,94434.14
2019-03-10T08:39:28.840Z,94427.77
2019-03-10T08:42:20.463Z,94430.33
2019-03-10T08:44:59.616Z,94429.63
2019-03-10T08:47:28.896Z,94424.69
2019-03-10T08:50:00.285Z,94434.05
2019-03-10T08:52:31.470Z,94421.08
2019-03-10T08:55:15.652Z,94431.49
2019-03-10T08:58:01.642Z,94434.78
2019-03-10T09:00:41.407Z,94444.06
2019-03-10T09:03:25.164Z,94434.75
2019-03-10T09:06:05.205Z,94403.42
2019-03-10T09:08:45.229Z,94421.23
2019-03-10T09:11:28.163Z,94428.48
2019-03-10T09:13:59.319Z,94419.92
2019-03-10T09:16:32.984Z,94426.50
2019-03-10T09:19:09.684Z,94402.81
2019-03-10T09:21:40.826Z,94401.50
2019-03-10T09:24:21.106Z,94412.91
2019-03-10T09:27:01.100Z,94409.08
2019-03-10T09:29:37.960Z,94410.13
2019-03-10T09:32:09.148Z,94411.28
2019-03-10T09:34:40.293Z,94394.36
2019-03-10T09:37:12.569Z,94382.56
2019-03-10T09:39:46.641Z,94401.08
2019-03-10T09:42:17.875Z,94405.19
2019-03-10T09:44:57.889Z,94418.44
2019-03-10T09:47:34.502Z,94403.46
2019-03-10T09:50:22.286Z,94413.92
2019-03-10T09:52:55.887Z,94419.66
2019-03-10T09:55:42.586Z,94407.61
2019-03-10T09:58:25.771Z,94417.77
2019-03-10T10:01:09.073Z,94421.56
2019-03-10T10:03:42.700Z,94425.16
2019-03-10T10:06:23.772Z,94434.05
2019-03-10T10:08:54.919Z,94438.14
2019-03-10T10:11:33.311Z,94428.72
2019-03-10T10:14:04.471Z,94438.00
2019-03-10T10:16:44.700Z,94441.67
2019-03-10T10:19:25.691Z,94449.12
2019-03-10T10:22:14.714Z,94470.02
2019-03-10T10:24:48.442Z,94461.20
2019-03-10T10:27:22.186Z,94471.30
2019-03-10T10:30:08.486Z,94454.86
2019-03-10T10:32:48.245Z,94451.61
2019-03-10T10:35:19.400Z,94460.92
2019-03-10T10:37:50.568Z,94447.48
2019-03-10T10:40:21.702Z,94443.98
2019-03-10T10:43:04.940Z,94443.34
2019-03-10T10:45:47.565Z,94445.06
2019-03-10T10:48:18.711Z,94436.66
2019-03-10T10:50:55.850Z,94444.56
2019-03-10T10:53:30.347Z,94439.53
2019-03-10T10:56:10.411Z,94421.99
2019-03-10T10:58:46.936Z,94409.66
2019-03-10T11:01:24.994Z,94398.25
2019-03-10T11:04:05.038Z,94393.70
2019-03-10T11:06:52.184Z,94393.58
2019-03-10T11:09:29.088Z,94388.20
2019-03-10T11:12:02.949Z,94392.13
2019-03-10T11:14:42.834Z,94389.58
2019-03-10T11:17:18.083Z,94385.75
2019-03-10T11:19:47.349Z,94399.94
2019-03-10T11:22:18.497Z,94380.95
2019-03-10T11:24:49.671Z,94373.94
2019-03-10T11:27:27.732Z,94364.93
2019-03-10T11:29:59.697Z,94358.27
2019-03-10T11:32:36.590Z,94363.70
2019-03-10T11:35:16.231Z,94344.80
2019-03-10T11:37:50.407Z,94332.91
2019-03-10T11:40:30.623Z,94320.59
2019-03-10T11:43:17.636Z,94315.08
2019-03-10T11:45:57.649Z,94304.02
2019-03-10T11:48:44.781Z,94284.94
2019-03-10T11:51:21.617Z,94259.20
2019-03-10T11:53:58.767Z,94259.20
2019-03-10T11:56:47.856Z,94247.22
2019-03-10T11:59:19.037Z,94254.59
2019-03-10T12:01:56.068Z,94266.25
2019-03-10T12:04:39.212Z,94261.05
2019-03-10T12:07:17.394Z,94259.38
2019-03-10T12:09:46.912Z,94281.17
2019-03-10T12:12:16.439Z,94269.56
2019-03-10T12:14:45.945Z,94249.17
2019-03-10T12:17:16.302Z,94259.30
2019-03-10T12:19:45.813Z,94262.53
2019-03-10T12:22:15.335Z,94260.52
2019-03-10T12:24:45.014Z,94259.71
2019-03-10T12:27:14.510Z,94251.03
2019-03-10T12:29:44.588Z,94241.81
2019-03-10T12:32:14.109Z,94246.52
2019-03-10T12:34:43.615Z,94239.07
2019-03-10T12:37:13.112Z,94250.83
2019-03-10T12:39:42.602Z,94255.35
2019-03-10T12:42:12.782Z,94254.84
2019-03-10T12:44:42.279Z,94266.70
2019-03-10T12:47:11.785Z,94267.80
2019-03-10T12:49:41.325Z,94246.77
2019-03-10T12:52:10.835Z,94259.52
2019-03-10T12:54:41.070Z,94261.72
2019-03-10T12:57:10.582Z,94251.04
2019-03-10T12:59:40.093Z,94265.72
2019-03-10T13:02:09.668Z,94262.50
2019-03-10T13:04:39.302Z,94268.53
2019-03-10T13:07:09.365Z,94257.31
2019-03-10T13:09:38.877Z,94271.45
2019-03-10T13:12:08.393Z,94258.81
2019-03-10T13:14:37.892Z,94238.91
2019-03-10T13:17:07.402Z,94238.58
2019-03-10T13:19:37.555Z,94239.76
2019-03-10T13:22:07.090Z,94246.64
2019-03-10T13:24:36.595Z,94264.30
2019-03-10T13:27:06.174Z,94230.39
2019-03-10T13:29:35.667Z,94235.84
2019-03-10T13:32:05.213Z,94250.45
2019-03-10T13:34:34.711Z,94240.78
2019-03-10T13:37:04.253Z,94225.16
2019-03-10T13:39:33.745Z,94237.00
2019-03-10T13:42:03.448Z,94238.55
2019-03-10T13:44:34.037Z,94234.75
2019-03-10T13:47:03.598Z,94218.32
2019-03-10T13:49:33.227Z,94202.98
2019-03-10T13:52:02.689Z,94220.52
2019-03-10T13:54:32.213Z,94218.05
2019-03-10T13:57:02.287Z,94216.75
2019-03-10T13:59:31.823Z,94239.05
2019-03-10T14:02:01.332Z,94215.16
2019-03-10T14:04:30.830Z,94221.10
2019-03-10T14:07:00.340Z,94232.85
2019-03-10T14:09:29.857Z,94243.23
2019-03-10T14:11:59.373Z,94233.84
2019-03-10T14:14:28.873Z,94254.53
2019-03-10T14:16:58.387Z,94251.98
2019-03-10T14:19:27.872Z,94259.61
2019-03-10T14:21:58.627Z,94262.30
2019-03-10T14:24:28.120Z,94260.84
2019-03-10T14:26:57.670Z,94281.27
2019-03-10T14:29:27.154Z,94248.20
2019-03-10T14:31:56.649Z,94248.40
2019-03-10T14:34:45.548Z,94254.45
2019-03-10T14:37:15.054Z,94236.23
2019-03-10T14:39:44.615Z,94236.30
2019-03-10T14:42:14.124Z,94237.55
2019-03-10T14:44:43.625Z,94200.61
2019-03-10T14:47:13.165Z,94238.24
2019-03-10T14:49:42.651Z,94230.48
2019-03-10T14:52:12.179Z,94221.41
2019-03-10T14:54:41.693Z,94250.88
2019-03-10T14:57:11.244Z,94264.88
2019-03-10T14:59:40.763Z,94242.73
2019-03-10T15:02:10.309Z,94249.27
2019-03-10T15:04:40.220Z,94257.52
2019-03-10T15:07:09.729Z,94270.52
2019-03-10T15:09:39.229Z,94263.84
2019-03-10T15:12:08.757Z,94269.90
2019-03-10T15:14:38.250Z,94269.95
2019-03-10T15:17:08.579Z,94277.73
2019-03-10T15:19:38.067Z,94265.91
2019-03-10T15:22:07.614Z,94276.36
2019-03-10T15:24:37.132Z,94275.98
2019-03-10T15:27:06.648Z,94267.59
2019-03-10T15:29:36.922Z,94284.06
2019-03-10T15:32:06.500Z,94324.65
2019-03-10T15:34:36.059Z,94308.02
2019-03-10T15:37:05.674Z,94381.75
2019-03-10T15:39:35.210Z,94357.13
2019-03-10T15:42:05.195Z,94365.45
2019-03-10T15:44:34.708Z,94348.55
2019-03-10T15:47:04.227Z,94367.38
2019-03-10T15:49:33.712Z,94343.75
2019-03-10T15:52:03.237Z,94327.74
2019-03-10T15:54:33.381Z,94320.81
2019-03-10T15:57:02.888Z,94317.09
2019-03-10T15:59:32.403Z,94327.42
2019-03-10T16:02:01.914Z,94342.84
2019-03-10T16:04:31.400Z,94350.48
2019-03-10T16:07:01.683Z,94360.70
2019-03-10T16:09:32.059Z,94353.89
2019-03-10T16:12:01.554Z,94356.52
2019-03-10T16:14:31.040Z,94359.15
2019-03-10T16:17:00.562Z,94354.59
2019-03-10T16:19:30.054Z,94362.80
2019-03-10T16:21:59.574Z,94356.34
2019-03-10T16:24:29.095Z,94370.73
2019-03-10T16:26:58.582Z,94366.09
2019-03-10T16:29:28.101Z,94368.35
2019-03-10T16:31:58.146Z,94386.74
2019-03-10T16:34:27.696Z,94388.17
2019-03-10T16:36:57.185Z,94404.48
2019-03-10T16:39:26.735Z,94414.95
2019-03-10T16:41:56.248Z,94407.22
2019-03-10T16:44:26.515Z,94404.81
2019-03-10T16:46:56.009Z,94435.84
2019-03-10T16:49:25.527Z,94406.98
2019-03-10T16:51:55.065Z,94418.44
2019-03-10T16:54:24.590Z,94416.42
2019-03-10T16:56:54.081Z,94411.94
2019-03-10T16:59:23.599Z,94400.52
2019-03-10T17:01:53.145Z,94403.06
2019-03-10T17:04:22.650Z,94409.26
2019-03-10T17:06:52.164Z,94392.63
2019-03-10T17:09:22.932Z,94413.02
2019-03-10T17:11:52.436Z,94421.86
2019-03-10T17:14:21.950Z,94428.42
2019-03-10T17:16:51.561Z,94443.70
2019-03-10T17:19:21.165Z,94459.25
2019-03-10T17:21:51.685Z,94441.04
2019-03-10T17:24:21.193Z,94458.59
2019-03-10T17:26:50.755Z,94480.88
2019-03-10T17:29:20.279Z,94471.29
2019-03-10T17:31:49.777Z,94475.27
2019-03-10T17:34:19.714Z,94486.16
2019-03-10T17:36:49.435Z,94499.53
2019-03-10T17:39:18.918Z,94511.66
2019-03-10T17:41:48.486Z,94505.67
2019-03-10T17:44:18.055Z,94518.08
2019-03-10T17:46:47.955Z,94526.05
2019-03-10T17:49:17.475Z,94521.20
2019-03-10T17:51:47.044Z,94528.34
2019-03-10T17:54:16.531Z,94529.28
2019-03-10T17:56:46.040Z,94528.72
2019-03-10T17:59:16.157Z,94523.42
2019-03-10T18:01:45.702Z,94559.09
2019-03-10T18:04:15.233Z,94545.45
2019-03-10T18:06:44.722Z,94541.02
2019-03-10T18:09:14.243Z,94566.23
2019-03-10T18:11:43.846Z,94576.53
2019-03-10T18:14:13.313Z,94585.31
2019-03-10T18:16:42.872Z,94581.28
2019-03-10T18:19:12.450Z,94583.77
2019-03-10T18:21:41.932Z,94594.72
2019-03-10T18:24:12.601Z,94585.27
2019-03-10T18:26:42.178Z,94595.18
2019-03-10T18:29:11.687Z,94603.02
2019-03-10T18:31:41.298Z,94610.66
2019-03-10T18:34:10.876Z,94628.63
2019-03-10T18:36:40.882Z,94622.07
2019-03-10T18:39:10.527Z,94626.03
2019-03-10T18:41:40.015Z,94606.75
2019-03-10T18:44:09.516Z,94612.61
2019-03-10T18:46:38.991Z,94639.78
2019-03-10T18:49:08.556Z,94631.72
2019-03-10T18:51:38.078Z,94639.41
2019-03-10T18:54:07.716Z,94606.47
2019-03-10T18:56:37.220Z,94638.72
2019-03-10T18:59:06.727Z,94627.27
2019-03-10T19:01:37.062Z,94637.88
2019-03-10T19:04:06.573Z,94604.23
2019-03-10T19:06:36.181Z,94655.70
2019-03-10T19:09:07.415Z,94640.59
2019-03-10T19:11:37.070Z,94653.01
2019-03-10T19:14:06.590Z,94646.80
2019-03-10T19:16:36.142Z,94659.25
2019-03-10T19:19:05.728Z,94675.00
2019-03-10T19:21:35.717Z,94677.77
2019-03-10T19:24:05.305Z,94671.09
2019-03-10T19:26:34.818Z,94684.87
2019-03-10T19:29:04.582Z,94678.08
2019-03-10T19:31:34.114Z,94683.04
2019-03-10T19:34:03.692Z,94679.50
2019-03-10T19:36:33.176Z,94706.30
2019-03-10T19:39:02.759Z,94681.54
2019-03-10T19:41:32.272Z,94680.61
2019-03-10T19:44:01.770Z,94682.11
2019-03-10T19:46:31.285Z,94688.36
2019-03-10T19:49:00.823Z,94673.19
2019-03-10T19:51:30.307Z,94670.27
2019-03-10T19:53:59.801Z,94687.95
2019-03-10T19:56:29.307Z,94692.34
2019-03-10T19:58:58.820Z,94689.76
2019-03-10T20:01:28.311Z,94691.74
2019-03-10T20:03:57.818Z,94701.03
2019-03-10T20:06:27.306Z,94709.22
2019-03-10T20:08:56.792Z,94711.32
2019-03-10T20:11:26.295Z,94703.66
2019-03-10T20:13:55.782Z,94713.95
2019-03-10T20:16:25.323Z,94710.67
2019-03-10T20:18:54.832Z,94725.72
2019-03-10T20:21:24.334Z,94747.30
2019-03-10T20:23:53.850Z,94757.57
2019-03-10T20:26:23.379Z,94754.32
2019-03-10T20:28:52.867Z,94752.34
2019-03-10T20:31:22.370Z,94748.78
2019-03-10T20:33:52.582Z,94755.95
2019-03-10T20:36:22.200Z,94772.60
2019-03-10T20:38:51.751Z,94771.47
2019-03-10T20:41:21.230Z,94764.62
2019-03-10T20:43:50.732Z,94770.98
2019-03-10T20:46:20.270Z,94783.55
2019-03-10T20:48:49.748Z,94789.42
2019-03-10T20:51:19.246Z,94793.67
2019-03-10T20:53:48.756Z,94781.12
2019-03-10T20:56:18.271Z,94785.19
2019-03-10T20:58:47.786Z,94784.36
2019-03-10T21:01:17.314Z,94790.09
2019-03-10T21:03:46.803Z,94787.16
2019-03-10T21:06:16.292Z,94801.52
2019-03-10T21:08:45.800Z,94803.94
2019-03-10T21:11:15.340Z,94820.73
2019-03-10T21:13:44.827Z,94823.98
2019-03-10T21:16:14.337Z,94838.03
2019-03-10T21:18:43.835Z,94848.94
2019-03-10T21:21:15.571Z,94832.82
2019-03-10T21:23:45.062Z,94850.50
2019-03-10T21:26:14.580Z,94850.83
2019-03-10T21:28:44.069Z,94852.27
2019-03-10T21:31:13.589Z,94866.31
2019-03-10T21:33:44.350Z,94865.66
2019-03-10T21:36:13.835Z,94871.27
2019-03-10T21:38:43.348Z,94871.28
2019-03-10T21:41:14.450Z,94870.92
2019-03-10T21:43:44.160Z,94880.43
2019-03-10T21:46:13.712Z,94881.88
2019-03-10T21:48:43.199Z,94878.95
2019-03-10T21:51:12.723Z,94870.59
2019-03-10T21:53:42.245Z,94903.02
2019-03-10T21:56:11.780Z,94897.84
2019-03-10T21:58:41.265Z,94909.86
2019-03-10T22:01:10.794Z,94939.41
2019-03-10T22:03:40.309Z,94964.30
2019-03-10T22:06:09.803Z,94977.06
2019-03-10T22:08:39.305Z,95000.27
2019-03-10T22:11:08.814Z,95008.08
2019-03-10T22:13:46.663Z,95017.19
2019-03-10T22:16:10.442Z,95032.03
2019-03-10T22:18:39.958Z,95033.31
2019-03-10T22:21:09.463Z,95047.44
2019-03-10T22:23:39.282Z,95067.08
2019-03-10T22:26:08.802Z,95078.69
2019-03-10T22:28:38.335Z,95058.58
2019-03-10T22:31:07.828Z,95069.13
2019-03-10T22:33:37.308Z,95070.50
2019-03-10T22:36:06.810Z,95099.63
2019-03-10T22:38:37.573Z,95085.94
2019-03-10T22:41:07.078Z,95092.45
2019-03-10T22:43:36.565Z,95096.02
2019-03-10T22:46:06.130Z,95101.13
2019-03-10T22:48:35.652Z,95097.54
2019-03-10T22:51:05.152Z,95106.44
2019-03-10T22:53:34.638Z,95087.34
2019-03-10T22:56:04.242Z,95113.88
2019-03-10T22:58:33.753Z,95118.77
2019-03-10T23:01:03.602Z,95126.48
2019-03-10T23:03:33.081Z,95127.91
2019-03-10T23:06:02.613Z,95124.83
2019-03-10T23:08:32.100Z,95147.95
2019-03-10T23:11:01.631Z,95139.03
2019-03-10T23:13:31.189Z,95139.80
2019-03-10T23:16:20.027Z,95153.92
2019-03-10T23:18:49.562Z,95177.35
2019-03-10T23:21:20.315Z,95171.05
2019-03-10T23:23:49.797Z,95181.47
2019-03-10T23:26:19.340Z,95169.24
2019-03-10T23:28:48.838Z,95163.20
2019-03-10T23:31:18.372Z,95164.12
2019-03-10T23:33:49.177Z,95169.67
2019-03-10T23:36:18.674Z,95175.00
2019-03-10T23:38:48.164Z,95175.27
2019-03-10T23:41:17.668Z,95177.94
2019-03-10T23:43:47.161Z,95186.44
2019-03-10T23:46:17.998Z,95183.92
2019-03-10T23:48:47.487Z,95187.47
2019-03-10T23:51:17.007Z,95198.06
2019-03-10T23:53:46.723Z,95184.56
2019-03-10T23:56:16.197Z,95192.16
2019-03-10T23:58:46.482Z,95192.91
